Time;durP1;ratioP1;P1;durP2;ratioP2;P2;SDS_P1;SDS_P2;PMS_P1;PMS_P2;Temp;Humidity;BMP_temperature;BMP_pressure;BME280_temperature;BME280_humidity;BME280_pressure;Samples;Min_cycle;Max_cycle;Signal;HPM_P1;HPM_P2
2021/06/26 00:00:58;;;;;;;10.48;6.15;;;31.00;58.10;;;;;;5155086;27;20039;-80
2021/06/26 00:03:27;;;;;;;8.48;6.22;;;31.00;58.00;;;;;;5154692;27;20102;-79
2021/06/26 00:05:54;;;;;;;11.32;6.20;;;31.00;58.10;;;;;;5154336;27;20039;-80
2021/06/26 00:08:22;;;;;;;13.90;6.38;;;31.00;58.00;;;;;;5154501;27;20118;-80
2021/06/26 00:10:49;;;;;;;7.65;5.78;;;31.00;58.00;;;;;;5154424;27;20041;-80
2021/06/26 00:13:17;;;;;;;7.75;5.63;;;30.90;57.90;;;;;;5154384;27;20058;-80
2021/06/26 00:15:43;;;;;;;6.55;5.82;;;31.00;58.00;;;;;;5135847;27;20034;-80
2021/06/26 00:18:09;;;;;;;7.85;6.07;;;30.90;57.90;;;;;;5135764;27;20562;-80
2021/06/26 00:20:35;;;;;;;10.52;5.60;;;31.00;57.90;;;;;;5154068;27;20038;-80
2021/06/26 00:23:02;;;;;;;9.13;6.20;;;30.90;57.80;;;;;;5136004;27;20402;-81
2021/06/26 00:25:28;;;;;;;7.25;5.90;;;30.90;57.80;;;;;;5154458;27;20039;-82
2021/06/26 00:27:54;;;;;;;8.27;5.70;;;30.90;57.80;;;;;;5154093;27;20039;-80
2021/06/26 00:30:21;;;;;;;7.55;5.95;;;30.90;57.80;;;;;;5154171;27;20058;-80
2021/06/26 00:32:47;;;;;;;7.97;5.57;;;30.90;57.90;;;;;;5154002;27;20037;-80
2021/06/26 00:35:14;;;;;;;9.38;5.75;;;30.90;58.00;;;;;;5157156;27;20049;-80
2021/06/26 00:37:42;;;;;;;9.57;5.65;;;30.90;58.20;;;;;;5157940;27;20027;-80
2021/06/26 00:40:09;;;;;;;8.50;5.88;;;30.80;58.30;;;;;;5158637;27;20049;-79
2021/06/26 00:42:37;;;;;;;9.15;5.72;;;30.80;58.40;;;;;;5157950;27;20038;-80
2021/06/26 00:45:08;;;;;;;7.60;5.20;;;30.80;58.50;;;;;;5158033;27;20087;-80
2021/06/26 00:47:34;;;;;;;9.38;5.72;;;30.80;58.60;;;;;;5139695;27;20118;-81
2021/06/26 00:50:01;;;;;;;7.63;5.80;;;30.80;58.80;;;;;;5139406;27;20440;-81
2021/06/26 00:52:28;;;;;;;10.50;5.90;;;30.80;59.00;;;;;;5157784;27;20094;-81
2021/06/26 00:54:54;;;;;;;9.68;5.90;;;30.80;59.00;;;;;;5158121;27;20079;-80
2021/06/26 00:57:22;;;;;;;8.05;6.25;;;30.80;59.20;;;;;;5157867;27;20038;-80
2021/06/26 00:59:49;;;;;;;7.38;5.60;;;30.80;59.20;;;;;;5122083;27;20514;-80
2021/06/26 01:02:15;;;;;;;10.50;6.15;;;30.80;59.00;;;;;;5157643;27;20118;-80
2021/06/26 01:04:41;;;;;;;7.57;6.18;;;30.80;59.20;;;;;;5157686;27;20114;-81
2021/06/26 01:07:08;;;;;;;9.60;6.40;;;30.80;59.30;;;;;;5157581;27;20042;-80
2021/06/26 01:09:34;;;;;;;12.57;5.97;;;30.80;59.40;;;;;;5139085;27;20031;-81
2021/06/26 01:12:00;;;;;;;7.30;6.15;;;30.70;59.30;;;;;;5157412;27;20035;-81
2021/06/26 01:14:27;;;;;;;9.90;6.00;;;30.80;59.50;;;;;;5158071;27;20126;-80
2021/06/26 01:16:53;;;;;;;6.60;5.78;;;30.70;59.50;;;;;;5157370;27;20041;-81
2021/06/26 01:19:20;;;;;;;11.30;5.80;;;30.70;59.50;;;;;;5138728;27;20035;-81
2021/06/26 01:21:49;;;;;;;6.88;6.00;;;30.70;59.50;;;;;;5157864;27;20030;-80
2021/06/26 01:24:15;;;;;;;10.43;6.28;;;30.70;59.60;;;;;;5157585;27;20122;-81
2021/06/26 01:26:41;;;;;;;8.52;5.88;;;30.80;59.80;;;;;;5157316;27;20118;-81
2021/06/26 01:29:12;;;;;;;10.23;5.68;;;30.80;59.80;;;;;;5157206;27;20035;-81
2021/06/26 01:31:39;;;;;;;7.80;6.32;;;30.80;59.70;;;;;;5138736;27;20035;-81
2021/06/26 01:34:05;;;;;;;7.80;5.82;;;30.80;59.70;;;;;;5156962;27;20502;-81
2021/06/26 01:36:32;;;;;;;7.68;6.15;;;30.80;59.90;;;;;;5156992;27;20031;-81
2021/06/26 01:38:59;;;;;;;8.32;5.90;;;30.80;59.90;;;;;;5156971;27;20042;-81
2021/06/26 01:41:31;;;;;;;8.27;6.07;;;30.80;60.00;;;;;;5157562;27;20027;-81
2021/06/26 01:43:57;;;;;;;11.20;6.13;;;30.80;60.00;;;;;;5157253;27;20042;-81
2021/06/26 01:46:23;;;;;;;8.57;5.82;;;30.80;60.20;;;;;;5156470;27;20039;-81
2021/06/26 01:48:49;;;;;;;8.32;6.30;;;30.80;60.20;;;;;;5156728;27;20038;-81
2021/06/26 01:51:15;;;;;;;7.93;6.03;;;30.80;60.20;;;;;;5156790;27;20087;-80
2021/06/26 01:53:42;;;;;;;9.27;6.35;;;30.70;60.40;;;;;;5156870;27;20043;-81
2021/06/26 01:56:08;;;;;;;8.48;5.78;;;30.80;60.00;;;;;;5156729;27;20121;-81
2021/06/26 01:58:34;;;;;;;6.28;5.63;;;30.80;59.90;;;;;;5156665;27;20121;-81
2021/06/26 02:01:00;;;;;;;10.95;6.40;;;30.80;59.60;;;;;;5156785;27;20066;-81
2021/06/26 02:03:25;;;;;;;10.05;6.03;;;30.80;59.40;;;;;;5156497;27;20049;-81
2021/06/26 02:05:51;;;;;;;8.82;6.05;;;30.70;59.20;;;;;;5156651;27;20065;-81
2021/06/26 02:08:17;;;;;;;8.23;6.30;;;30.70;59.00;;;;;;5156740;27;20058;-80
2021/06/26 02:10:43;;;;;;;7.07;6.00;;;30.80;59.10;;;;;;5137998;27;20070;-81
2021/06/26 02:13:09;;;;;;;8.00;5.93;;;30.80;59.20;;;;;;5156654;27;20066;-81
2021/06/26 02:15:35;;;;;;;10.20;6.15;;;30.80;58.90;;;;;;5156270;27;20115;-81
2021/06/26 02:18:01;;;;;;;9.80;6.20;;;30.80;58.60;;;;;;5137710;27;20490;-81
2021/06/26 02:20:27;;;;;;;9.52;6.13;;;30.80;58.40;;;;;;5120778;27;20042;-81
2021/06/26 02:22:53;;;;;;;12.45;6.68;;;30.80;58.30;;;;;;5156247;27;20475;-81
2021/06/26 02:25:19;;;;;;;9.00;6.00;;;30.80;58.40;;;;;;5156100;27;20039;-81
2021/06/26 02:27:45;;;;;;;10.20;6.30;;;30.70;58.60;;;;;;5156079;27;20049;-81
2021/06/26 02:30:12;;;;;;;9.18;6.53;;;30.70;58.50;;;;;;5137475;27;20027;-81
2021/06/26 02:32:39;;;;;;;12.55;6.88;;;30.80;58.90;;;;;;5136645;27;20046;-81
2021/06/26 02:35:06;;;;;;;8.80;5.85;;;30.70;58.70;;;;;;5156295;27;20042;-81
2021/06/26 02:37:32;;;;;;;10.23;6.60;;;30.70;58.60;;;;;;5120258;27;20022;-81
2021/06/26 02:39:59;;;;;;;10.93;6.72;;;30.70;58.40;;;;;;5156051;27;20174;-80
2021/06/26 02:42:25;;;;;;;10.80;6.50;;;30.70;58.60;;;;;;5155897;27;20042;-79
2021/06/26 02:44:51;;;;;;;9.63;5.75;;;30.80;58.60;;;;;;5155863;27;20398;-80
2021/06/26 02:47:18;;;;;;;9.80;6.07;;;30.70;58.60;;;;;;5156140;27;20034;-80
2021/06/26 02:49:44;;;;;;;8.55;6.03;;;30.70;58.60;;;;;;5154232;27;20053;-79
2021/06/26 02:52:10;;;;;;;10.07;6.32;;;30.70;59.20;;;;;;5155442;27;20058;-80
2021/06/26 02:54:36;;;;;;;8.38;6.55;;;30.80;58.90;;;;;;5155453;27;20074;-80
2021/06/26 02:57:02;;;;;;;9.40;6.18;;;30.80;59.60;;;;;;5154685;27;20030;-79
2021/06/26 02:59:28;;;;;;;8.68;6.47;;;30.80;58.90;;;;;;5155422;27;20041;-80
2021/06/26 03:01:54;;;;;;;11.93;6.97;;;30.80;59.30;;;;;;5155362;27;20030;-80
2021/06/26 03:04:20;;;;;;;9.02;6.10;;;30.80;59.20;;;;;;5155676;27;20037;-79
2021/06/26 03:06:46;;;;;;;10.93;6.25;;;30.80;59.50;;;;;;5155418;27;20061;-79
2021/06/26 03:09:12;;;;;;;9.25;6.07;;;30.80;59.00;;;;;;5155341;27;20114;-79
2021/06/26 03:11:38;;;;;;;8.52;5.90;;;30.80;58.80;;;;;;5155357;27;20129;-80
2021/06/26 03:14:04;;;;;;;11.10;5.78;;;30.80;58.90;;;;;;5155386;27;20055;-79
2021/06/26 03:16:30;;;;;;;9.32;5.97;;;30.80;58.80;;;;;;5136653;27;20486;-80
2021/06/26 03:18:56;;;;;;;12.63;6.43;;;30.70;59.00;;;;;;5155389;27;20039;-79
2021/06/26 03:21:22;;;;;;;11.38;6.20;;;30.80;59.30;;;;;;5155146;27;20034;-79
2021/06/26 03:23:48;;;;;;;6.93;6.07;;;30.80;59.50;;;;;;5154794;27;20094;-79
2021/06/26 03:26:15;;;;;;;10.68;6.28;;;30.90;59.80;;;;;;5155156;27;20026;-79
2021/06/26 03:28:41;;;;;;;9.13;6.18;;;30.90;60.10;;;;;;5155096;27;20578;-79
2021/06/26 03:31:07;;;;;;;10.77;6.13;;;31.00;60.50;;;;;;5136448;27;20038;-79
2021/06/26 03:33:33;;;;;;;8.57;6.20;;;31.10;60.90;;;;;;5154699;27;20505;-79
2021/06/26 03:35:59;;;;;;;10.48;6.38;;;31.10;61.70;;;;;;5154708;27;20087;-79
2021/06/26 03:38:26;;;;;;;9.20;5.82;;;31.20;61.20;;;;;;5154749;27;20504;-79
2021/06/26 03:40:53;;;;;;;9.00;6.68;;;31.20;61.20;;;;;;5155115;27;20039;-79
2021/06/26 03:43:19;;;;;;;7.45;6.07;;;31.30;62.20;;;;;;5154878;27;20053;-79
2021/06/26 03:45:45;;;;;;;8.20;6.18;;;31.30;62.60;;;;;;5154860;27;20133;-79
2021/06/26 03:48:11;;;;;;;6.30;5.55;;;31.40;62.60;;;;;;5119793;27;20054;-79
2021/06/26 03:50:39;;;;;;;8.48;5.90;;;31.40;62.40;;;;;;5154748;27;20446;-80
2021/06/26 03:53:05;;;;;;;8.27;5.70;;;31.40;62.20;;;;;;5136042;27;20041;-79
2021/06/26 03:55:31;;;;;;;10.30;5.88;;;31.50;62.30;;;;;;5135932;27;20149;-80
2021/06/26 03:57:57;;;;;;;12.25;6.28;;;31.50;63.10;;;;;;5118968;27;20125;-79
2021/06/26 04:00:23;;;;;;;6.68;5.57;;;31.50;63.20;;;;;;5154368;27;20066;-79
2021/06/26 04:02:49;;;;;;;9.10;5.57;;;31.60;63.60;;;;;;5135854;27;20117;-79
2021/06/26 04:05:15;;;;;;;6.90;5.57;;;31.60;62.50;;;;;;5136221;27;20139;-79
2021/06/26 04:07:41;;;;;;;9.48;5.70;;;31.60;62.30;;;;;;5153839;27;20083;-79
2021/06/26 04:10:07;;;;;;;7.80;5.57;;;31.60;62.10;;;;;;5136250;27;20048;-79
2021/06/26 04:12:33;;;;;;;8.27;5.60;;;31.60;62.00;;;;;;5154015;27;20090;-79
2021/06/26 04:15:00;;;;;;;7.75;5.43;;;31.60;62.20;;;;;;5135376;27;20026;-79
2021/06/26 04:17:26;;;;;;;5.65;4.88;;;31.60;62.00;;;;;;5154217;27;20066;-79
2021/06/26 04:19:51;;;;;;;8.43;5.45;;;31.70;62.10;;;;;;5154210;27;20065;-79
2021/06/26 04:22:17;;;;;;;10.60;5.65;;;31.70;62.20;;;;;;5154357;27;20035;-79
2021/06/26 04:24:43;;;;;;;12.63;5.97;;;31.70;62.20;;;;;;5154316;27;20046;-79
2021/06/26 04:27:09;;;;;;;10.57;5.60;;;31.70;62.00;;;;;;5154057;27;20038;-79
2021/06/26 04:29:35;;;;;;;10.65;5.90;;;31.70;62.20;;;;;;5154133;27;20054;-79
2021/06/26 04:32:01;;;;;;;7.93;5.82;;;31.70;62.30;;;;;;5154086;27;20023;-79
2021/06/26 04:34:27;;;;;;;7.18;5.50;;;31.70;62.00;;;;;;5154012;27;20570;-81
2021/06/26 04:36:53;;;;;;;8.73;6.03;;;31.70;62.10;;;;;;5135688;27;20037;-79
2021/06/26 04:39:20;;;;;;;7.47;5.40;;;31.70;61.90;;;;;;5154230;27;20035;-79
2021/06/26 04:41:48;;;;;;;9.98;5.50;;;31.70;62.40;;;;;;5154098;27;20074;-79
2021/06/26 04:44:14;;;;;;;5.50;5.00;;;31.70;62.70;;;;;;5153819;27;20031;-81
2021/06/26 04:46:41;;;;;;;8.57;5.32;;;31.80;63.00;;;;;;5154029;27;20118;-79
2021/06/26 04:49:07;;;;;;;7.85;5.45;;;31.80;62.70;;;;;;5135565;27;20490;-79
2021/06/26 04:51:36;;;;;;;7.72;5.50;;;31.80;62.60;;;;;;5153662;27;20026;-80
2021/06/26 04:54:02;;;;;;;8.73;5.22;;;31.80;62.70;;;;;;5153784;27;20149;-79
2021/06/26 04:56:28;;;;;;;5.97;5.03;;;31.80;63.00;;;;;;5135520;27;20518;-81
2021/06/26 04:58:54;;;;;;;6.28;5.03;;;31.80;63.10;;;;;;5154257;27;20038;-80
2021/06/26 05:01:20;;;;;;;7.45;5.25;;;31.90;63.60;;;;;;5135856;27;20038;-79
2021/06/26 05:03:46;;;;;;;10.35;5.78;;;31.90;63.10;;;;;;5153842;27;20031;-79
2021/06/26 05:06:13;;;;;;;6.30;5.43;;;31.90;63.30;;;;;;5153870;27;20558;-79
2021/06/26 05:08:39;;;;;;;7.15;4.95;;;31.90;63.30;;;;;;5135544;27;20094;-79
2021/06/26 05:11:06;;;;;;;10.60;5.60;;;31.90;63.10;;;;;;5153899;27;20031;-79
2021/06/26 05:13:32;;;;;;;9.05;5.93;;;31.90;63.30;;;;;;5131179;28;20395;-79
2021/06/26 05:15:58;;;;;;;8.45;5.63;;;31.90;63.30;;;;;;5132936;27;20031;-79
2021/06/26 05:18:27;;;;;;;6.40;5.28;;;31.90;63.30;;;;;;5133328;27;20495;-79
2021/06/26 05:20:55;;;;;;;7.20;5.82;;;31.90;63.60;;;;;;5133629;27;20031;-79
2021/06/26 05:23:20;;;;;;;6.05;5.13;;;31.90;63.10;;;;;;5135363;27;20039;-79
2021/06/26 05:25:47;;;;;;;7.13;5.72;;;31.90;63.60;;;;;;5136480;27;20478;-79
2021/06/26 05:28:13;;;;;;;8.73;5.78;;;31.90;63.70;;;;;;5135098;27;20068;-79
2021/06/26 05:30:40;;;;;;;8.70;5.72;;;31.90;63.60;;;;;;5136321;27;20565;-79
2021/06/26 05:33:06;;;;;;;7.97;5.93;;;31.90;64.00;;;;;;5136493;27;20037;-79
2021/06/26 05:35:33;;;;;;;7.28;5.32;;;31.90;64.20;;;;;;5136484;27;20409;-80
2021/06/26 05:37:59;;;;;;;5.70;5.13;;;31.90;63.70;;;;;;5136413;27;20115;-79
2021/06/26 05:40:25;;;;;;;6.07;5.05;;;32.00;62.20;;;;;;5135284;27;20478;-79
2021/06/26 05:42:51;;;;;;;6.80;5.30;;;32.10;61.40;;;;;;5136261;27;20038;-78
2021/06/26 05:45:17;;;;;;;7.88;5.28;;;32.20;60.60;;;;;;5136174;27;20062;-79
2021/06/26 05:47:43;;;;;;;8.13;5.47;;;32.10;60.20;;;;;;5136015;27;20502;-79
2021/06/26 05:50:10;;;;;;;7.50;5.55;;;32.40;60.70;;;;;;5136299;27;20035;-79
2021/06/26 05:52:50;;;;;;;8.07;4.95;;;32.40;59.80;;;;;;5117578;27;20175;-80
2021/06/26 05:55:17;;;;;;;7.32;5.22;;;32.40;59.50;;;;;;5135955;27;20559;-80
2021/06/26 05:57:43;;;;;;;8.10;5.03;;;32.50;59.20;;;;;;5117664;27;20043;-79
2021/06/26 06:00:11;;;;;;;7.65;4.97;;;32.60;59.10;;;;;;5135910;27;20039;-80
2021/06/26 06:02:40;;;;;;;7.30;5.18;;;32.60;58.90;;;;;;5136049;27;20046;-80
2021/06/26 06:05:12;;;;;;;7.43;4.68;;;32.60;58.60;;;;;;5135997;27;20087;-81
2021/06/26 06:07:38;;;;;;;8.02;5.18;;;32.50;57.80;;;;;;5135948;27;20139;-80
2021/06/26 06:10:06;;;;;;;8.82;5.47;;;32.70;58.00;;;;;;5135160;27;20047;-80
2021/06/26 06:12:33;;;;;;;5.90;4.63;;;32.70;57.80;;;;;;5138412;27;20065;-81
2021/06/26 06:15:00;;;;;;;7.85;5.40;;;32.80;57.40;;;;;;5138061;27;20049;-81
2021/06/26 06:17:27;;;;;;;5.90;4.68;;;32.80;57.00;;;;;;5156103;27;20118;-80
2021/06/26 06:19:53;;;;;;;6.43;5.10;;;32.80;57.00;;;;;;5156447;27;20118;-80
2021/06/26 06:22:19;;;;;;;8.77;5.35;;;32.80;57.10;;;;;;5156062;27;20126;-80
2021/06/26 06:24:45;;;;;;;9.00;4.95;;;32.80;56.60;;;;;;5137434;27;20091;-81
2021/06/26 06:27:11;;;;;;;7.50;5.53;;;32.90;56.00;;;;;;5156417;27;20359;-80
2021/06/26 06:29:39;;;;;;;8.35;4.93;;;32.90;55.90;;;;;;5137731;27;20035;-81
2021/06/26 06:32:05;;;;;;;8.40;5.15;;;33.00;56.30;;;;;;5156114;27;20083;-80
2021/06/26 06:34:31;;;;;;;6.22;4.60;;;33.00;56.70;;;;;;5155822;27;20081;-81
2021/06/26 06:36:56;;;;;;;4.85;4.45;;;33.00;56.90;;;;;;5155845;27;20066;-81
2021/06/26 06:39:24;;;;;;;7.45;4.85;;;33.00;57.00;;;;;;5155712;27;20023;-81
2021/06/26 06:41:50;;;;;;;8.32;4.97;;;33.00;57.00;;;;;;5120183;27;20497;-80
2021/06/26 06:44:16;;;;;;;7.30;4.85;;;33.00;56.90;;;;;;5156329;27;20058;-80
2021/06/26 06:46:41;;;;;;;6.10;5.10;;;33.00;56.90;;;;;;5155927;27;20034;-81
2021/06/26 06:49:07;;;;;;;8.30;4.55;;;33.00;56.90;;;;;;5155898;27;20375;-80
2021/06/26 06:51:33;;;;;;;6.22;4.35;;;33.10;57.00;;;;;;5137164;27;20030;-81
2021/06/26 06:53:59;;;;;;;6.90;5.10;;;33.10;57.00;;;;;;5119867;27;20035;-81
2021/06/26 06:56:25;;;;;;;5.53;5.03;;;33.10;57.10;;;;;;5120060;27;20039;-80
2021/06/26 06:58:51;;;;;;;8.98;5.68;;;33.10;57.00;;;;;;5155355;27;20031;-81
2021/06/26 07:01:17;;;;;;;7.85;5.63;;;33.10;56.00;;;;;;5137037;27;20026;-81
2021/06/26 07:03:43;;;;;;;8.45;5.50;;;33.10;55.40;;;;;;5119731;27;20030;-81
2021/06/26 07:06:09;;;;;;;8.02;5.40;;;33.00;55.60;;;;;;5155291;27;20045;-81
2021/06/26 07:08:35;;;;;;;7.78;5.30;;;33.00;55.90;;;;;;5155084;27;20041;-81
2021/06/26 07:11:02;;;;;;;9.73;5.40;;;33.00;56.00;;;;;;5155226;27;20039;-81
2021/06/26 07:13:28;;;;;;;9.23;5.07;;;33.00;56.20;;;;;;5136125;27;20054;-82
2021/06/26 07:15:54;;;;;;;8.25;4.80;;;33.00;56.40;;;;;;5155536;27;20026;-81
2021/06/26 07:18:21;;;;;;;6.85;4.72;;;33.00;56.40;;;;;;5155079;27;20080;-81
2021/06/26 07:20:47;;;;;;;10.82;5.70;;;33.00;56.40;;;;;;5136015;27;20896;-81
2021/06/26 07:23:13;;;;;;;8.45;5.38;;;33.00;56.80;;;;;;5154579;27;20585;-81
2021/06/26 07:25:39;;;;;;;7.38;5.65;;;33.10;56.90;;;;;;5154734;27;20064;-81
2021/06/26 07:28:05;;;;;;;8.70;5.28;;;33.10;56.80;;;;;;5136439;27;20053;-81
2021/06/26 07:30:31;;;;;;;6.00;4.93;;;33.10;56.90;;;;;;5136414;27;20034;-81
2021/06/26 07:33:00;;;;;;;7.38;5.15;;;33.10;57.00;;;;;;5136577;27;20035;-81
2021/06/26 07:35:26;;;;;;;6.13;4.97;;;33.00;57.20;;;;;;5154784;27;20121;-81
2021/06/26 07:37:53;;;;;;;8.35;5.55;;;33.10;57.10;;;;;;5154487;27;20090;-80
2021/06/26 07:40:19;;;;;;;8.50;5.20;;;33.10;57.40;;;;;;5154824;27;20026;-81
2021/06/26 07:42:45;;;;;;;6.88;5.00;;;33.10;57.40;;;;;;5154132;27;20030;-80
2021/06/26 07:45:11;;;;;;;6.50;4.97;;;33.10;58.20;;;;;;5154834;27;20057;-81
2021/06/26 07:47:38;;;;;;;6.90;5.13;;;33.10;58.30;;;;;;5118896;27;20025;-81
2021/06/26 07:50:08;;;;;;;7.05;5.30;;;33.00;58.80;;;;;;5154445;27;20034;-81
2021/06/26 07:56:11;;;;;;;7.28;5.25;;;33.00;58.90;;;;;;5141441;27;20056;-80
2021/06/26 07:58:37;;;;;;;7.80;5.50;;;33.00;58.60;;;;;;5154062;27;20077;-80
2021/06/26 08:01:03;;;;;;;7.40;5.68;;;;;;;;;;5154441;27;20390;-80
2021/06/26 08:03:30;;;;;;;6.53;5.28;;;33.00;59.20;;;;;;5154418;27;20044;-82
2021/06/26 08:05:55;;;;;;;7.05;5.65;;;33.00;59.10;;;;;;5135890;27;20047;-80
2021/06/26 08:08:22;;;;;;;8.13;5.10;;;33.00;59.40;;;;;;5154573;27;20034;-81
2021/06/26 08:10:49;;;;;;;7.20;5.38;;;33.00;58.70;;;;;;5154107;27;20041;-81
2021/06/26 08:13:15;;;;;;;6.88;4.82;;;33.00;58.90;;;;;;5135470;27;20058;-81
2021/06/26 08:15:43;;;;;;;6.72;5.18;;;33.00;58.50;;;;;;5135787;27;20030;-81
2021/06/26 08:18:12;;;;;;;5.95;5.05;;;33.00;58.80;;;;;;5154352;27;20038;-80
2021/06/26 08:20:40;;;;;;;6.85;5.03;;;33.00;58.70;;;;;;5153834;27;20031;-81
2021/06/26 08:23:06;;;;;;;6.72;4.88;;;33.00;59.00;;;;;;5154348;27;20119;-81
2021/06/26 08:25:33;;;;;;;5.75;5.15;;;33.00;58.90;;;;;;5153916;27;20525;-81
2021/06/26 08:27:58;;;;;;;5.65;4.90;;;32.90;58.80;;;;;;5135688;27;20602;-81
2021/06/26 08:30:25;;;;;;;6.03;4.63;;;33.00;58.90;;;;;;5154138;27;20039;-81
2021/06/26 08:32:51;;;;;;;6.05;4.45;;;32.90;58.60;;;;;;5153808;27;20031;-81
2021/06/26 08:35:18;;;;;;;5.43;4.93;;;32.90;58.80;;;;;;5154409;27;20038;-80
2021/06/26 08:37:45;;;;;;;5.15;4.75;;;32.90;58.60;;;;;;5153907;27;20077;-80
2021/06/26 08:40:16;;;;;;;4.78;4.35;;;32.90;58.80;;;;;;5135587;27;20099;-80
2021/06/26 08:42:42;;;;;;;8.15;4.88;;;32.90;58.90;;;;;;5134533;27;20042;-80
2021/06/26 08:45:11;;;;;;;6.35;4.93;;;32.90;58.80;;;;;;5153730;27;20062;-81
2021/06/26 08:47:46;;;;;;;6.28;5.32;;;32.90;58.60;;;;;;5118618;27;20039;-81
2021/06/26 08:50:14;;;;;;;5.80;4.95;;;32.90;58.60;;;;;;5118286;27;20486;-81
2021/06/26 08:52:40;;;;;;;6.30;4.97;;;32.90;58.40;;;;;;5153571;27;20125;-82
2021/06/26 08:55:07;;;;;;;10.77;5.13;;;32.90;58.40;;;;;;5154863;27;20045;-82
2021/06/26 08:57:36;;;;;;;5.88;5.20;;;32.90;58.40;;;;;;5139464;27;20034;-82
2021/06/26 09:00:07;;;;;;;8.23;4.90;;;32.90;58.40;;;;;;5139297;27;20061;-81
2021/06/26 09:02:33;;;;;;;6.50;4.95;;;32.80;58.20;;;;;;5139402;27;20030;-82
2021/06/26 09:04:59;;;;;;;5.53;5.00;;;32.80;58.10;;;;;;5158088;27;20038;-81
2021/06/26 09:07:37;;;;;;;7.55;5.03;;;32.80;58.20;;;;;;5157923;27;20035;-81
2021/06/26 09:10:16;;;;;;;7.03;5.25;;;32.80;57.70;;;;;;5139269;27;20031;-81
2021/06/26 09:12:44;;;;;;;5.93;5.40;;;32.80;57.50;;;;;;5138814;27;20054;-79
2021/06/26 09:15:24;;;;;;;7.68;4.97;;;32.80;57.60;;;;;;5157475;27;20497;-82
2021/06/26 09:17:50;;;;;;;8.70;5.32;;;32.80;57.70;;;;;;5157593;27;20394;-81
2021/06/26 09:20:16;;;;;;;5.80;5.18;;;32.80;57.40;;;;;;5157530;27;20043;-81
2021/06/26 09:22:46;;;;;;;5.65;5.10;;;32.80;57.70;;;;;;5121568;27;20035;-81
2021/06/26 09:25:31;;;;;;;7.93;5.30;;;32.80;57.40;;;;;;5157259;27;20054;-81
2021/06/26 09:28:03;;;;;;;6.53;5.22;;;32.80;57.70;;;;;;5139173;27;20034;-81
2021/06/26 09:30:38;;;;;;;6.60;5.90;;;32.80;57.60;;;;;;5138539;27;20050;-82
2021/06/26 09:33:15;;;;;;;7.25;5.60;;;32.80;57.40;;;;;;5157032;27;20042;-82
2021/06/26 09:35:45;;;;;;;7.10;5.72;;;32.80;58.00;;;;;;5157447;27;20030;-81
2021/06/26 09:38:12;;;;;;;6.90;5.53;;;32.80;57.40;;;;;;5138498;27;20091;-81
2021/06/26 09:40:40;;;;;;;7.45;5.38;;;32.70;57.60;;;;;;5156805;27;20611;-81
2021/06/26 09:43:14;;;;;;;7.63;5.55;;;32.80;57.70;;;;;;5138125;27;20034;-82
2021/06/26 09:45:40;;;;;;;7.73;5.90;;;32.80;57.70;;;;;;5138422;27;20026;-81
2021/06/26 09:48:07;;;;;;;9.13;6.03;;;32.80;57.70;;;;;;5138434;27;20040;-81
2021/06/26 09:50:36;;;;;;;6.07;5.40;;;32.80;57.70;;;;;;5156834;27;20405;-81
2021/06/26 09:53:07;;;;;;;8.32;6.68;;;32.80;57.70;;;;;;5121654;27;20513;-81
2021/06/26 09:55:40;;;;;;;8.60;5.95;;;32.80;57.80;;;;;;5156727;27;20123;-81
2021/06/26 09:58:12;;;;;;;6.95;5.43;;;32.70;57.60;;;;;;5156547;27;20481;-81
2021/06/26 10:00:43;;;;;;;7.03;5.70;;;32.80;57.80;;;;;;5156343;27;20414;-81
2021/06/26 10:03:10;;;;;;;6.53;5.38;;;32.80;57.60;;;;;;5138182;27;20502;-81
2021/06/26 10:05:37;;;;;;;6.90;5.90;;;32.80;57.70;;;;;;5119861;27;20043;-81
2021/06/26 10:08:05;;;;;;;7.13;5.75;;;32.80;57.80;;;;;;5156427;27;20030;-80
2021/06/26 10:10:32;;;;;;;7.80;5.60;;;32.80;57.40;;;;;;5156042;27;20387;-81
2021/06/26 10:12:58;;;;;;;6.45;5.65;;;32.80;57.30;;;;;;5137788;27;20050;-80
2021/06/26 10:15:31;;;;;;;7.13;6.15;;;32.80;57.30;;;;;;5156334;27;20043;-80
2021/06/26 10:17:59;;;;;;;6.60;5.88;;;32.80;57.40;;;;;;5138302;27;20398;-81
2021/06/26 10:20:29;;;;;;;6.65;5.95;;;32.80;57.60;;;;;;5156151;27;20117;-82
2021/06/26 10:23:00;;;;;;;8.18;5.93;;;32.80;57.20;;;;;;5137391;27;20038;-81
2021/06/26 10:25:31;;;;;;;9.25;5.90;;;32.80;57.10;;;;;;5137678;27;20026;-80
2021/06/26 10:28:16;;;;;;;7.32;5.93;;;32.80;57.10;;;;;;5156231;27;20034;-80
2021/06/26 10:31:14;;;;;;;8.07;5.63;;;32.80;56.80;;;;;;5137668;27;20026;-80
2021/06/26 10:33:40;;;;;;;6.60;5.90;;;32.80;56.90;;;;;;5137114;27;20039;-80
2021/06/26 10:36:06;;;;;;;8.50;5.65;;;32.80;56.60;;;;;;5156213;27;20042;-80
2021/06/26 10:38:40;;;;;;;7.05;5.68;;;32.80;56.50;;;;;;5155947;27;20046;-81
2021/06/26 10:41:16;;;;;;;7.97;7.18;;;32.80;56.70;;;;;;5137405;27;20117;-79
2021/06/26 10:43:54;;;;;;;7.13;5.65;;;32.80;56.80;;;;;;5156161;27;20030;-81
2021/06/26 10:46:22;;;;;;;6.80;6.18;;;32.80;56.70;;;;;;5155672;27;20038;-80
2021/06/26 10:49:09;;;;;;;7.43;6.03;;;32.80;56.30;;;;;;5155433;27;20031;-81
2021/06/26 10:51:38;;;;;;;8.70;5.78;;;32.80;56.50;;;;;;5155507;27;20030;-81
2021/06/26 10:54:13;;;;;;;9.32;6.05;;;32.80;56.10;;;;;;5155412;27;20146;-80
2021/06/26 10:56:39;;;;;;;6.35;5.75;;;32.80;56.40;;;;;;5119651;27;20562;-80
2021/06/26 10:59:13;;;;;;;7.55;6.00;;;32.80;56.90;;;;;;5155595;27;20111;-80
2021/06/26 11:01:54;;;;;;;6.72;6.00;;;32.80;56.30;;;;;;5136758;27;20038;-80
2021/06/26 11:04:23;;;;;;;9.30;6.38;;;32.80;56.30;;;;;;5137331;27;20072;-80
2021/06/26 11:07:01;;;;;;;9.45;6.32;;;32.80;56.30;;;;;;5155259;27;20401;-81
2021/06/26 11:09:35;;;;;;;6.78;6.13;;;32.80;56.30;;;;;;5136658;27;20058;-81
2021/06/26 11:12:19;;;;;;;7.43;5.65;;;32.80;56.40;;;;;;5155129;27;20074;-80
2021/06/26 11:14:50;;;;;;;6.63;6.03;;;32.80;56.40;;;;;;5136617;27;20035;-80
2021/06/26 11:17:17;;;;;;;7.20;5.40;;;32.80;56.40;;;;;;5136223;27;20497;-81
2021/06/26 11:19:43;;;;;;;6.90;6.28;;;32.80;56.30;;;;;;5154837;27;20077;-80
2021/06/26 11:22:09;;;;;;;6.72;5.25;;;32.80;56.10;;;;;;5136849;27;20062;-80
2021/06/26 11:24:40;;;;;;;6.70;6.07;;;32.80;56.20;;;;;;5136031;27;20494;-80
2021/06/26 11:27:08;;;;;;;6.95;5.65;;;32.80;56.00;;;;;;5136406;27;20026;-80
2021/06/26 11:29:40;;;;;;;6.70;6.10;;;32.80;55.10;;;;;;5136220;27;20053;-80
2021/06/26 11:32:23;;;;;;;7.28;5.85;;;32.80;55.40;;;;;;5119414;27;20031;-79
2021/06/26 11:34:54;;;;;;;10.18;6.82;;;32.80;55.50;;;;;;5154620;27;20061;-79
2021/06/26 11:37:21;;;;;;;6.75;6.05;;;32.80;55.30;;;;;;5155491;27;20038;-79
2021/06/26 11:39:47;;;;;;;6.97;6.28;;;32.80;55.60;;;;;;5119685;27;20175;-80
2021/06/26 11:42:18;;;;;;;7.05;6.40;;;32.80;55.80;;;;;;5135939;27;20121;-82
2021/06/26 11:44:45;;;;;;;6.78;6.22;;;32.80;55.70;;;;;;5135988;27;20042;-80
2021/06/26 11:47:12;;;;;;;7.63;6.93;;;32.80;55.80;;;;;;5136136;27;20061;-80
2021/06/26 11:49:45;;;;;;;7.80;6.78;;;32.80;55.80;;;;;;5154551;27;20064;-80
2021/06/26 11:52:15;;;;;;;7.32;6.60;;;32.80;55.20;;;;;;5154681;27;20114;-80
2021/06/26 11:54:43;;;;;;;8.30;6.85;;;32.80;55.00;;;;;;5136213;27;20042;-80
2021/06/26 11:57:16;;;;;;;7.97;6.68;;;32.80;55.10;;;;;;5135698;27;20038;-81
2021/06/26 11:59:57;;;;;;;7.82;7.13;;;32.80;55.10;;;;;;5135236;27;20070;-81
2021/06/26 12:02:32;;;;;;;8.35;6.93;;;32.80;55.10;;;;;;5154351;27;20031;-81
2021/06/26 12:05:28;;;;;;;7.95;7.18;;;32.80;55.10;;;;;;5154380;27;20034;-81
2021/06/26 12:08:02;;;;;;;7.80;7.05;;;32.80;55.30;;;;;;5114930;27;20038;-80
2021/06/26 12:10:31;;;;;;;9.43;7.60;;;32.80;55.20;;;;;;5118629;27;20023;-81
2021/06/26 12:12:58;;;;;;;8.20;7.40;;;32.80;54.30;;;;;;5118240;27;20061;-80
2021/06/26 12:15:25;;;;;;;8.60;7.53;;;32.80;54.20;;;;;;5135633;27;20501;-80
2021/06/26 12:18:04;;;;;;;8.20;7.40;;;32.80;53.80;;;;;;5135646;27;20035;-80
2021/06/26 12:20:35;;;;;;;9.30;8.38;;;32.80;54.00;;;;;;5154316;27;20039;-80
2021/06/26 12:23:07;;;;;;;8.77;7.97;;;32.80;54.10;;;;;;5135794;27;20058;-80
2021/06/26 12:25:44;;;;;;;10.13;8.35;;;32.80;54.40;;;;;;5153977;27;20030;-80
2021/06/26 12:28:11;;;;;;;9.20;8.30;;;32.80;54.20;;;;;;5153993;27;20552;-80
2021/06/26 12:30:42;;;;;;;10.35;8.00;;;32.80;54.50;;;;;;5139147;27;20512;-80
2021/06/26 12:33:13;;;;;;;8.93;8.00;;;32.80;54.80;;;;;;5158474;27;20463;-80
2021/06/26 12:35:42;;;;;;;10.00;8.13;;;32.80;54.30;;;;;;5139440;27;20117;-80
2021/06/26 12:38:10;;;;;;;10.05;7.55;;;32.80;54.10;;;;;;5139748;27;20034;-80
2021/06/26 12:40:52;;;;;;;9.70;8.02;;;32.80;54.00;;;;;;5140074;27;20482;-80
2021/06/26 12:43:33;;;;;;;9.73;8.10;;;32.80;54.20;;;;;;5141984;27;20069;-80
2021/06/26 12:46:00;;;;;;;10.00;7.80;;;32.80;54.40;;;;;;5139875;27;20031;-80
2021/06/26 12:48:50;;;;;;;10.35;8.02;;;32.80;54.20;;;;;;5158293;27;20039;-80
2021/06/26 12:51:22;;;;;;;8.10;7.38;;;32.80;54.10;;;;;;5139484;27;20029;-80
2021/06/26 12:53:51;;;;;;;10.30;7.63;;;32.80;54.10;;;;;;5139790;27;20046;-80